createdAt,value
2022-11-03T00:01:34.926Z,2.73
2022-11-03T00:04:02.948Z,2.97
2022-11-03T00:06:30.936Z,3.00
2022-11-03T00:09:00.241Z,3.23
2022-11-03T00:11:28.416Z,2.80
2022-11-03T00:13:58.698Z,3.10
2022-11-03T00:16:26.773Z,3.10
2022-11-03T00:18:54.992Z,3.40
2022-11-03T00:21:23.136Z,2.70
2022-11-03T00:23:51.943Z,3.23
2022-11-03T00:26:21.830Z,3.00
2022-11-03T00:28:52.515Z,3.20
2022-11-03T00:31:23.606Z,2.73
2022-11-03T00:33:51.939Z,3.23
2022-11-03T00:36:21.845Z,3.07
2022-11-03T00:38:50.595Z,2.87
2022-11-03T00:41:20.717Z,3.03
2022-11-03T00:43:49.452Z,3.00
2022-11-03T00:46:17.846Z,2.90
2022-11-03T00:48:47.260Z,3.10
2022-11-03T00:51:17.070Z,2.97
2022-11-03T00:53:47.018Z,2.80
2022-11-03T00:56:16.317Z,2.90
2022-11-03T00:58:44.992Z,3.30
2022-11-03T01:01:15.031Z,2.77
2022-11-03T01:04:05.701Z,3.27
2022-11-03T01:06:50.988Z,2.70
2022-11-03T01:09:20.229Z,2.77
2022-11-03T01:11:54.379Z,2.67
2022-11-03T01:14:22.464Z,2.60
2022-11-03T01:16:50.626Z,2.60
2022-11-03T01:19:18.600Z,2.47
2022-11-03T01:21:47.886Z,2.60
2022-11-03T01:24:15.892Z,2.67
2022-11-03T01:26:43.788Z,2.57
2022-11-03T01:29:11.820Z,2.83
2022-11-03T01:31:39.822Z,2.70
2022-11-03T01:34:07.872Z,2.80
2022-11-03T01:36:35.779Z,2.80
2022-11-03T01:39:05.202Z,2.70
2022-11-03T01:41:33.092Z,2.87
2022-11-03T01:44:30.757Z,3.40
2022-11-03T01:47:08.354Z,2.90
2022-11-03T01:49:41.102Z,2.97
2022-11-03T01:52:14.823Z,2.77
2022-11-03T01:54:49.380Z,2.60
2022-11-03T01:57:23.746Z,2.50
2022-11-03T01:59:52.699Z,3.30
2022-11-03T02:02:26.031Z,2.77
2022-11-03T02:04:56.258Z,2.87
2022-11-03T02:07:27.484Z,2.70
2022-11-03T02:09:57.023Z,2.60
2022-11-03T02:12:25.044Z,2.80
2022-11-03T02:14:56.964Z,2.47
2022-11-03T02:17:28.592Z,2.50
2022-11-03T02:20:01.541Z,2.83
2022-11-03T02:22:58.685Z,3.00
2022-11-03T02:25:38.439Z,2.70
2022-11-03T02:28:07.658Z,2.67
2022-11-03T02:30:43.546Z,2.70
2022-11-03T02:33:21.569Z,2.60
2022-11-03T02:35:55.165Z,2.50
2022-11-03T02:38:27.985Z,2.67
2022-11-03T02:41:03.336Z,2.30
2022-11-03T02:43:31.973Z,2.47
2022-11-03T02:46:00.962Z,2.27
2022-11-03T02:48:29.253Z,2.47
2022-11-03T02:50:57.113Z,2.40
2022-11-03T02:53:26.367Z,2.40
2022-11-03T02:56:02.692Z,2.30
2022-11-03T02:58:36.210Z,2.40
2022-11-03T03:01:14.822Z,2.30
2022-11-03T03:03:48.028Z,2.80
2022-11-03T03:06:20.511Z,2.40
2022-11-03T03:08:54.703Z,2.67
2022-11-03T03:11:38.704Z,2.37
2022-11-03T03:14:11.460Z,2.70
2022-11-03T03:16:48.605Z,2.50
2022-11-03T03:19:30.309Z,2.57
2022-11-03T03:22:02.215Z,2.33
2022-11-03T03:24:38.326Z,2.40
2022-11-03T03:27:12.285Z,2.53
2022-11-03T03:29:46.198Z,2.80
2022-11-03T03:32:18.573Z,2.67
2022-11-03T03:34:49.616Z,2.40
2022-11-03T03:37:18.665Z,2.40
2022-11-03T03:39:49.610Z,2.63
2022-11-03T03:42:21.319Z,2.87
2022-11-03T03:44:50.156Z,2.60
2022-11-03T03:47:23.160Z,2.47
2022-11-03T03:49:51.162Z,2.50
2022-11-03T03:52:19.573Z,2.50
2022-11-03T03:54:47.685Z,2.50
2022-11-03T03:57:16.795Z,2.87
2022-11-03T03:59:46.398Z,2.50
2022-11-03T04:02:15.306Z,2.40
2022-11-03T04:04:43.575Z,2.40
2022-11-03T04:07:29.430Z,2.53
2022-11-03T04:09:57.349Z,2.43
2022-11-03T04:12:42.696Z,2.50
2022-11-03T04:15:31.713Z,2.40
2022-11-03T04:18:17.351Z,2.57
2022-11-03T04:21:02.914Z,2.33
2022-11-03T04:23:30.887Z,2.70
2022-11-03T04:26:00.143Z,2.30
2022-11-03T04:28:28.315Z,2.70
2022-11-03T04:31:00.480Z,2.30
2022-11-03T04:33:30.411Z,3.10
2022-11-03T04:36:00.402Z,2.20
2022-11-03T04:38:30.335Z,2.43
2022-11-03T04:40:59.994Z,2.50
2022-11-03T04:43:34.126Z,2.67
2022-11-03T04:46:03.740Z,2.77
2022-11-03T04:48:31.841Z,2.53
2022-11-03T04:51:01.965Z,2.70
2022-11-03T04:53:33.856Z,2.40
2022-11-03T04:56:07.162Z,2.77
2022-11-03T04:58:36.864Z,2.50
2022-11-03T05:01:13.388Z,2.27
2022-11-03T05:03:43.251Z,2.50
2022-11-03T05:06:15.201Z,2.63
2022-11-03T05:08:44.913Z,2.87
2022-11-03T05:11:21.370Z,2.70
2022-11-03T05:13:50.038Z,3.37
2022-11-03T05:16:19.714Z,2.63
2022-11-03T05:18:50.767Z,2.83
2022-11-03T05:21:22.771Z,2.50
2022-11-03T05:23:54.077Z,2.93
2022-11-03T05:26:26.679Z,3.10
2022-11-03T05:28:59.902Z,2.80
2022-11-03T05:31:30.787Z,3.00
2022-11-03T05:34:00.099Z,2.70
2022-11-03T05:36:30.369Z,2.80
2022-11-03T05:39:06.832Z,3.40
2022-11-03T05:41:36.567Z,2.97
2022-11-03T05:44:17.449Z,2.40
2022-11-03T05:46:46.735Z,2.80
2022-11-03T05:49:14.950Z,2.77
2022-11-03T05:51:45.602Z,2.70
2022-11-03T05:54:21.639Z,2.73
2022-11-03T05:56:49.923Z,2.73
2022-11-03T05:59:23.928Z,2.40
2022-11-03T06:01:55.151Z,2.70
2022-11-03T06:04:29.059Z,2.63
2022-11-03T06:07:01.233Z,2.70
2022-11-03T06:09:30.266Z,2.80
2022-11-03T06:11:59.870Z,3.10
2022-11-03T06:14:31.138Z,2.83
2022-11-03T06:17:05.786Z,2.80
2022-11-03T06:19:38.089Z,2.60
2022-11-03T06:22:14.817Z,2.30
2022-11-03T06:24:43.639Z,2.70
2022-11-03T06:27:15.281Z,2.90
2022-11-03T06:29:50.453Z,2.80
2022-11-03T06:32:20.123Z,2.57
2022-11-03T06:34:50.733Z,2.33
2022-11-03T06:37:22.395Z,3.10
2022-11-03T06:39:51.803Z,2.80
2022-11-03T06:42:25.582Z,2.70
2022-11-03T06:44:56.068Z,2.50
2022-11-03T06:47:27.419Z,2.10
2022-11-03T06:49:57.840Z,2.40
2022-11-03T06:52:29.463Z,2.70
2022-11-03T06:55:12.272Z,2.43
2022-11-03T06:57:45.729Z,2.50
2022-11-03T07:00:33.496Z,2.33
2022-11-03T07:03:09.942Z,2.20
2022-11-03T07:05:38.992Z,2.20
2022-11-03T07:08:18.673Z,2.57
2022-11-03T07:10:46.798Z,2.47
2022-11-03T07:13:16.765Z,2.70
2022-11-03T07:15:46.025Z,2.30
2022-11-03T07:18:21.312Z,2.37
2022-11-03T07:20:49.890Z,2.47
2022-11-03T07:23:21.043Z,2.40
2022-11-03T07:25:53.462Z,2.43
2022-11-03T07:28:23.071Z,2.27
2022-11-03T07:30:51.146Z,2.13
2022-11-03T07:33:26.401Z,2.40
2022-11-03T07:38:48.309Z,2.30
2022-11-03T07:41:20.050Z,2.43
2022-11-03T07:43:54.340Z,2.20
2022-11-03T07:46:24.064Z,2.40
2022-11-03T07:48:56.566Z,2.43
2022-11-03T07:51:27.105Z,2.23
2022-11-03T07:53:57.831Z,2.50
2022-11-03T07:56:28.368Z,2.67
2022-11-03T07:59:01.472Z,2.30
2022-11-03T08:01:32.336Z,2.90
2022-11-03T08:04:04.915Z,2.30
2022-11-03T08:06:33.494Z,2.77
2022-11-03T08:09:01.637Z,2.33
2022-11-03T08:11:30.093Z,2.40
2022-11-03T08:13:58.555Z,2.50
2022-11-03T08:16:26.723Z,2.60
2022-11-03T08:18:54.629Z,2.50
2022-11-03T08:21:24.003Z,2.40
2022-11-03T08:23:52.517Z,2.43
2022-11-03T08:26:20.628Z,2.50
2022-11-03T08:28:48.559Z,2.70
2022-11-03T08:31:16.767Z,2.40
2022-11-03T08:33:44.682Z,2.50
2022-11-03T08:36:13.161Z,2.40
2022-11-03T08:38:42.637Z,2.37
2022-11-03T08:41:10.882Z,2.37
2022-11-03T08:43:38.838Z,2.43
2022-11-03T08:46:16.731Z,2.37
2022-11-03T08:48:45.805Z,2.43
2022-11-03T08:51:14.624Z,2.40
2022-11-03T08:53:44.453Z,2.40
2022-11-03T08:56:19.017Z,2.30
2022-11-03T08:58:49.006Z,2.50
2022-11-03T09:01:17.047Z,2.20
2022-11-03T09:03:45.198Z,2.83
2022-11-03T09:06:13.166Z,2.33
2022-11-03T09:11:30.369Z,2.40
2022-11-03T09:13:58.230Z,2.40
2022-11-03T09:16:26.529Z,2.37
2022-11-03T09:18:54.397Z,2.07
2022-11-03T09:21:22.369Z,2.20
2022-11-03T09:23:50.364Z,1.90
2022-11-03T09:26:18.895Z,2.17
2022-11-03T09:28:49.364Z,2.30
2022-11-03T09:31:17.506Z,2.00
2022-11-03T09:33:45.495Z,2.57
2022-11-03T09:36:13.615Z,2.43
2022-11-03T09:38:41.542Z,2.10
2022-11-03T09:41:24.808Z,2.70
2022-11-03T09:43:58.614Z,2.60
2022-11-03T09:46:27.854Z,2.20
2022-11-03T09:48:56.660Z,2.50
2022-11-03T09:51:26.665Z,2.47
2022-11-03T09:53:56.328Z,2.50
2022-11-03T09:56:25.477Z,2.43
2022-11-03T09:58:54.753Z,2.40
2022-11-03T10:01:24.520Z,2.10
2022-11-03T10:03:52.789Z,2.13
2022-11-03T10:06:21.257Z,2.20
2022-11-03T10:08:50.149Z,2.07
2022-11-03T10:11:18.523Z,2.17
2022-11-03T10:13:48.922Z,2.40
2022-11-03T10:16:19.700Z,2.40
2022-11-03T10:18:49.712Z,2.20
2022-11-03T10:21:20.242Z,2.00
2022-11-03T10:23:50.146Z,2.30
2022-11-03T10:26:20.027Z,2.30
2022-11-03T10:29:02.221Z,2.27
2022-11-03T10:31:35.248Z,2.10
2022-11-03T10:34:05.519Z,2.10
2022-11-03T10:36:34.938Z,1.97
2022-11-03T10:39:25.951Z,2.10
2022-11-03T10:41:59.023Z,1.70
2022-11-03T10:44:29.075Z,2.03
2022-11-03T10:46:59.442Z,2.00
2022-11-03T10:49:30.448Z,2.07
2022-11-03T10:52:14.713Z,1.90
2022-11-03T10:54:42.882Z,1.90
2022-11-03T10:57:11.066Z,2.17
2022-11-03T10:59:39.992Z,1.93
2022-11-03T11:02:18.279Z,1.90
2022-11-03T11:04:49.969Z,2.03
2022-11-03T11:07:24.989Z,2.00
2022-11-03T11:09:54.075Z,1.87
2022-11-03T11:12:24.370Z,1.90
2022-11-03T11:14:57.603Z,2.20
2022-11-03T11:17:47.737Z,2.03
2022-11-03T11:20:37.538Z,2.27
2022-11-03T11:23:48.296Z,2.03
2022-11-03T11:26:34.409Z,2.00
2022-11-03T11:29:41.952Z,1.77
2022-11-03T11:32:48.942Z,1.70
2022-11-03T11:36:05.381Z,1.93
2022-11-03T11:39:11.457Z,1.80
2022-11-03T11:42:08.143Z,1.73
2022-11-03T11:44:58.668Z,2.00
2022-11-03T11:47:33.024Z,2.40
2022-11-03T11:50:27.751Z,2.10
2022-11-03T11:53:19.501Z,1.80
2022-11-03T11:55:53.283Z,1.77
2022-11-03T11:58:26.164Z,1.90
2022-11-03T12:01:00.896Z,2.10
2022-11-03T12:03:36.735Z,2.00
2022-11-03T12:06:05.070Z,1.83
2022-11-03T12:08:33.411Z,1.97
2022-11-03T12:11:04.662Z,1.70
2022-11-03T12:13:44.871Z,2.20
2022-11-03T12:16:31.334Z,2.13
2022-11-03T12:19:14.572Z,2.17
2022-11-03T12:21:50.189Z,1.70
2022-11-03T12:24:36.150Z,2.00
2022-11-03T12:27:19.725Z,1.83
2022-11-03T12:29:47.778Z,2.07
2022-11-03T12:32:32.180Z,2.17
2022-11-03T12:35:02.383Z,1.90
2022-11-03T12:37:30.500Z,1.63
2022-11-03T12:39:58.477Z,1.80
2022-11-03T12:42:27.989Z,2.27
2022-11-03T12:44:55.989Z,1.83
2022-11-03T12:47:24.064Z,2.10
2022-11-03T12:49:52.074Z,2.07
2022-11-03T12:52:19.997Z,1.83
2022-11-03T12:54:48.289Z,1.97
2022-11-03T12:57:16.148Z,1.97
2022-11-03T12:59:45.420Z,2.00
2022-11-03T13:02:13.349Z,1.93
2022-11-03T13:04:41.454Z,1.70
2022-11-03T13:07:09.304Z,1.80
2022-11-03T13:09:37.265Z,2.13
2022-11-03T13:12:23.302Z,1.83
2022-11-03T13:14:52.563Z,1.70
2022-11-03T13:17:20.549Z,2.00
2022-11-03T13:19:54.099Z,2.17
2022-11-03T13:22:22.576Z,1.90
2022-11-03T13:24:50.485Z,2.00
2022-11-03T13:27:18.417Z,2.00
2022-11-03T13:29:46.525Z,2.27
2022-11-03T13:32:15.874Z,2.00
2022-11-03T13:34:43.779Z,1.90
2022-11-03T13:37:11.873Z,2.40
2022-11-03T13:39:39.979Z,2.00
2022-11-03T13:42:07.901Z,1.70
2022-11-03T13:44:35.778Z,2.13
2022-11-03T13:47:04.446Z,2.30
2022-11-03T13:52:22.367Z,2.00
2022-11-03T14:00:27.444Z,2.30
2022-11-03T14:05:44.743Z,2.00
2022-11-03T14:08:12.909Z,1.93
2022-11-03T14:10:40.777Z,1.80
2022-11-03T14:13:08.572Z,1.97
2022-11-03T14:15:37.125Z,2.30
2022-11-03T14:18:05.339Z,2.13
2022-11-03T14:20:33.275Z,2.30
2022-11-03T14:23:02.630Z,2.10
2022-11-03T14:25:30.563Z,2.10
2022-11-03T14:27:58.492Z,2.10
2022-11-03T14:30:26.529Z,2.17
2022-11-03T14:32:59.399Z,2.30
2022-11-03T14:35:27.749Z,2.50
2022-11-03T14:37:55.723Z,2.33
2022-11-03T14:40:42.421Z,2.57
2022-11-03T14:43:10.614Z,2.27
2022-11-03T14:45:41.588Z,2.70
2022-11-03T14:48:10.825Z,2.50
2022-11-03T14:50:38.792Z,2.60
2022-11-03T14:53:06.749Z,2.17
2022-11-03T14:55:36.022Z,2.47
2022-11-03T14:58:04.122Z,2.30
2022-11-03T15:00:32.340Z,2.47
2022-11-03T15:03:00.955Z,2.70
2022-11-03T15:05:47.065Z,2.27
2022-11-03T15:08:16.762Z,2.30
2022-11-03T15:10:46.239Z,2.63
2022-11-03T15:13:14.167Z,2.80
2022-11-03T15:15:42.426Z,2.20
2022-11-03T15:18:10.605Z,2.27
2022-11-03T15:20:38.893Z,2.33
2022-11-03T15:25:57.344Z,2.33
2022-11-03T15:28:25.335Z,2.80
2022-11-03T15:30:53.314Z,2.67
2022-11-03T15:33:21.218Z,2.83
2022-11-03T15:35:49.304Z,2.53
2022-11-03T15:38:17.300Z,2.83
2022-11-03T15:40:45.366Z,2.78
2022-11-03T15:43:14.727Z,2.53
2022-11-03T15:45:42.747Z,2.83
2022-11-03T15:48:10.838Z,2.70
2022-11-03T15:50:39.031Z,2.60
2022-11-03T15:53:06.907Z,3.03
2022-11-03T15:55:34.983Z,2.80
2022-11-03T15:58:02.954Z,3.10
2022-11-03T16:00:32.225Z,2.73
2022-11-03T16:03:00.257Z,2.90
2022-11-03T16:05:28.569Z,3.10
2022-11-03T16:07:56.525Z,3.10
2022-11-03T16:10:24.418Z,3.40
2022-11-03T16:12:52.596Z,3.40
2022-11-03T16:15:20.761Z,3.20
2022-11-03T16:17:49.997Z,3.50
2022-11-03T16:20:18.201Z,3.20
2022-11-03T16:22:46.103Z,3.70
2022-11-03T16:25:16.701Z,3.40
2022-11-03T16:27:47.082Z,3.43
2022-11-03T16:30:15.147Z,3.63
2022-11-03T16:32:43.042Z,3.53
2022-11-03T16:35:12.461Z,3.67
2022-11-03T16:37:40.398Z,3.50
2022-11-03T16:40:12.506Z,3.47
2022-11-03T16:42:44.243Z,3.50
2022-11-03T16:45:18.340Z,3.40
2022-11-03T16:47:47.383Z,3.80
2022-11-03T16:50:17.301Z,3.50
2022-11-03T16:52:45.549Z,3.40
2022-11-03T16:55:14.970Z,3.33
2022-11-03T16:57:43.637Z,3.73
2022-11-03T17:00:14.433Z,4.03
2022-11-03T17:02:42.661Z,3.60
2022-11-03T17:05:11.145Z,3.80
2022-11-03T17:07:40.818Z,3.10
2022-11-03T17:10:09.783Z,3.53
2022-11-03T17:12:38.191Z,3.30
2022-11-03T17:15:07.356Z,3.60
2022-11-03T17:17:35.300Z,3.70
2022-11-03T17:20:03.545Z,3.83
2022-11-03T17:22:31.425Z,3.60
2022-11-03T17:25:01.614Z,3.30
2022-11-03T17:27:33.579Z,3.70
2022-11-03T17:30:05.936Z,3.50
2022-11-03T17:32:38.160Z,3.37
2022-11-03T17:35:11.053Z,3.30
2022-11-03T17:37:40.355Z,3.50
2022-11-03T17:40:16.098Z,3.27
2022-11-03T17:42:44.184Z,3.27
2022-11-03T17:45:14.149Z,3.10
2022-11-03T17:47:42.773Z,3.20
2022-11-03T17:50:14.746Z,2.93
2022-11-03T17:52:43.930Z,3.17
2022-11-03T17:55:18.959Z,3.00
2022-11-03T17:57:47.092Z,3.03
2022-11-03T18:00:17.862Z,3.00
2022-11-03T18:02:46.339Z,2.93
2022-11-03T18:05:24.034Z,3.00
2022-11-03T18:07:52.915Z,2.83
2022-11-03T18:10:23.260Z,2.87
2022-11-03T18:13:10.498Z,2.77
2022-11-03T18:15:41.360Z,2.80
2022-11-03T18:18:30.570Z,3.00
2022-11-03T18:20:59.558Z,2.73
2022-11-03T18:23:31.028Z,3.00
2022-11-03T18:26:01.560Z,2.80
2022-11-03T18:28:29.693Z,3.30
2022-11-03T18:30:58.716Z,3.30
2022-11-03T18:33:27.969Z,2.73
2022-11-03T18:35:56.346Z,2.93
2022-11-03T18:38:25.872Z,3.30
2022-11-03T18:40:54.153Z,2.90
2022-11-03T18:43:24.978Z,2.63
2022-11-03T18:45:53.192Z,2.73
2022-11-03T18:48:21.344Z,2.80
2022-11-03T18:50:51.064Z,3.00
2022-11-03T18:53:20.674Z,2.40
2022-11-03T18:55:49.581Z,2.67
2022-11-03T18:58:18.878Z,3.50
2022-11-03T19:00:48.339Z,3.43
2022-11-03T19:03:17.791Z,2.63
2022-11-03T19:05:47.658Z,2.97
2022-11-03T19:08:20.181Z,2.83
2022-11-03T19:10:48.633Z,2.80
2022-11-03T19:13:20.789Z,2.67
2022-11-03T19:15:50.246Z,2.77
2022-11-03T19:18:18.269Z,2.97
2022-11-03T19:20:46.228Z,3.03
2022-11-03T19:23:14.126Z,2.80
2022-11-03T19:25:43.877Z,2.57
2022-11-03T19:28:15.053Z,2.87
2022-11-03T19:30:43.765Z,3.53
2022-11-03T19:33:21.057Z,3.30
2022-11-03T19:35:50.133Z,3.03
2022-11-03T19:38:19.786Z,2.57
2022-11-03T19:41:05.797Z,2.77
2022-11-03T19:43:35.021Z,3.03
2022-11-03T19:46:03.505Z,3.10
2022-11-03T19:48:35.286Z,3.20
2022-11-03T19:51:04.708Z,2.87
2022-11-03T19:53:33.155Z,3.20
2022-11-03T19:56:01.335Z,3.20
2022-11-03T19:58:30.427Z,3.30
2022-11-03T20:01:01.752Z,3.20
2022-11-03T20:03:35.056Z,3.40
2022-11-03T20:06:03.107Z,3.73
2022-11-03T20:08:34.084Z,3.50
2022-11-03T20:11:02.440Z,3.37
2022-11-03T20:13:35.516Z,3.20
2022-11-03T20:16:03.548Z,3.30
2022-11-03T20:18:31.614Z,3.30
2022-11-03T20:21:00.989Z,2.80
2022-11-03T20:23:31.007Z,3.20
2022-11-03T20:25:59.549Z,2.97
2022-11-03T20:28:29.516Z,3.17
2022-11-03T20:30:59.655Z,3.20
2022-11-03T20:33:28.050Z,3.13
2022-11-03T20:35:56.650Z,3.57
2022-11-03T20:38:27.637Z,3.07
2022-11-03T20:40:58.494Z,3.30
2022-11-03T20:43:28.699Z,3.40
2022-11-03T20:45:56.900Z,3.10
2022-11-03T20:48:25.197Z,3.30
2022-11-03T20:50:54.914Z,3.70
2022-11-03T20:53:25.627Z,3.60
2022-11-03T20:55:53.973Z,3.50
2022-11-03T20:58:22.094Z,3.20
2022-11-03T21:00:50.312Z,3.20
2022-11-03T21:03:38.160Z,3.47
2022-11-03T21:06:11.165Z,3.40
2022-11-03T21:08:40.730Z,2.90
2022-11-03T21:11:27.541Z,3.50
2022-11-03T21:13:57.200Z,3.60
2022-11-03T21:16:43.324Z,3.40
2022-11-03T21:19:33.583Z,3.20
2022-11-03T21:22:01.634Z,3.40
2022-11-03T21:24:30.967Z,3.23
2022-11-03T21:26:58.966Z,3.20
2022-11-03T21:29:53.335Z,3.47
2022-11-03T21:32:16.799Z,3.30
2022-11-03T21:34:45.354Z,3.40
2022-11-03T21:37:15.808Z,4.00
2022-11-03T21:39:45.441Z,3.40
2022-11-03T21:42:31.866Z,3.23
2022-11-03T21:45:00.140Z,3.60
2022-11-03T21:47:30.862Z,3.73
2022-11-03T21:49:57.883Z,3.63
2022-11-03T21:52:32.600Z,3.43
2022-11-03T21:55:02.936Z,3.63
2022-11-03T21:57:31.687Z,3.93
2022-11-03T21:59:59.600Z,3.70
2022-11-03T22:02:29.887Z,3.73
2022-11-03T22:04:58.324Z,3.40
2022-11-03T22:07:26.328Z,3.63
2022-11-03T22:09:54.233Z,3.43
2022-11-03T22:12:24.191Z,3.87
2022-11-03T22:15:09.734Z,3.77
2022-11-03T22:17:37.655Z,4.00
2022-11-03T22:20:23.739Z,4.03
2022-11-03T22:23:09.285Z,3.63
2022-11-03T22:25:54.460Z,3.53
2022-11-03T22:28:23.828Z,4.23
2022-11-03T22:31:09.489Z,3.87
2022-11-03T22:33:57.381Z,4.07
2022-11-03T22:36:24.356Z,3.83
2022-11-03T22:39:09.737Z,4.03
2022-11-03T22:41:54.961Z,3.87
2022-11-03T22:44:41.569Z,3.67
2022-11-03T22:47:11.228Z,4.10
2022-11-03T22:49:41.804Z,3.70
2022-11-03T22:52:11.241Z,4.23
2022-11-03T22:54:38.141Z,4.37
2022-11-03T22:57:07.707Z,3.80
2022-11-03T22:59:36.917Z,4.13
2022-11-03T23:02:05.011Z,4.00
2022-11-03T23:04:33.004Z,4.10
2022-11-03T23:07:01.029Z,4.07
2022-11-03T23:09:28.995Z,4.50
2022-11-03T23:11:56.984Z,3.93
2022-11-03T23:14:45.037Z,4.30
2022-11-03T23:17:14.416Z,4.07
2022-11-03T23:19:59.648Z,4.40
2022-11-03T23:22:27.638Z,4.87
2022-11-03T23:25:00.382Z,4.37
2022-11-03T23:27:28.580Z,3.93
2022-11-03T23:29:56.852Z,4.17
2022-11-03T23:32:26.099Z,4.03
2022-11-03T23:34:54.016Z,4.30
2022-11-03T23:37:21.963Z,4.20
2022-11-03T23:39:49.833Z,4.23
2022-11-03T23:42:17.784Z,4.33
2022-11-03T23:45:14.658Z,4.23
2022-11-03T23:48:01.559Z,4.50
2022-11-03T23:50:29.690Z,4.50
2022-11-03T23:52:57.528Z,4.07
2022-11-03T23:55:25.501Z,4.17
2022-11-03T23:58:11.032Z,3.93
